Flight Track Log - Related Links

Times and Time Zones

All times are in EDT time to prevent confusion due to time zone crossing. See the UAL481 flight status page for this flight to view local times or setup timezone preferences in your user account.

Time Position Orientation Groundspeed Altitude Reporting Facility
EDT Latitude Longitude Course Direction KTS MPH feet Rate Location/Type
Mon 07:09:44 PM 26.9014 -100.9208 74° East 490 564 37,000  Level Houston Center
Mon 07:10:46 PM 26.9575 -100.7825 66° East 490 564 37,000  Level Houston Center
Mon 07:11:00 PM 26.9186 -101.5371 63° Northeast  Level FlightAware
Mon 07:11:48 PM 27.0122 -100.6456 66° East 486 559 37,000  Level Houston Center
Mon 07:12:00 PM 26.9628 -101.4178 74° East  Level FlightAware
Mon 07:12:50 PM 27.0661 -100.5097 66° East 481 554 36,900  Level Houston Center
Mon 07:13:00 PM 26.9953 -101.2934 74° East  Level FlightAware
Mon 07:13:52 PM 27.1322 -100.3461 66° East 481 554 36,900  Level Houston Center
Mon 07:14:00 PM 27.0278 -101.1690 74° East  Level FlightAware
Mon 07:14:54 PM 27.1864 -100.2067 66° East 485 558 36,900  Level Houston Center
Mon 07:15:56 PM 27.2450 -100.0689 64° Northeast 488 562 37,000  Climbing Houston Center
Mon 07:16:58 PM 27.3231 -99.9419 55° Northeast 491 565 36,900  Descending Houston Center
Mon 07:18:00 PM 27.4022 -99.8144 55° Northeast 493 567 37,000 48 Climbing Houston Center
Mon 07:19:02 PM 27.4811 -99.6856 55° Northeast 498 573 37,000  Level Houston Center
Mon 07:20:04 PM 27.5772 -99.5319 55° Northeast 499 574 37,000  Level Houston Center
Mon 07:21:06 PM 27.6569 -99.4011 55° Northeast 499 574 37,000 -48 Level Houston Center
Mon 07:22:08 PM 27.7372 -99.2717 55° Northeast 501 577 36,900 -48 Descending Houston Center
Mon 07:23:10 PM 27.8175 -99.1403 55° Northeast 501 577 36,900 48 Level Houston Center
Mon 07:24:12 PM 27.8981 -99.0081 55° Northeast 502 578 37,000 48 Climbing Houston Center
Mon 07:25:14 PM 27.9764 -98.8772 56° Northeast 502 578 37,000  Level Houston Center
Mon 07:26:16 PM 28.0558 -98.7456 56° Northeast 503 579 37,000  Level Houston Center
Mon 07:27:18 PM 28.1344 -98.6147 56° Northeast 503 579 37,000  Level Houston Center
Mon 07:28:20 PM 28.2292 -98.4569 56° Northeast 503 579 37,000  Level Houston Center
Mon 07:29:22 PM 28.3114 -98.3189 56° Northeast 497 572 37,000  Level Houston Center
Mon 07:30:24 PM 28.3897 -98.1881 56° Northeast 496 571 37,000  Level Houston Center
Mon 07:31:26 PM 28.4678 -98.0561 56° Northeast 494 568 37,000  Level Houston Center
Mon 07:32:28 PM 28.5461 -97.9242 56° Northeast 494 568 37,000  Level Houston Center
Mon 07:33:30 PM 28.6236 -97.7922 56° Northeast 493 567 37,000  Level Houston Center
Mon 07:34:32 PM 28.6908 -97.6789 56° Northeast 490 564 37,000  Level Houston Center
Mon 07:35:34 PM 28.7800 -97.5258 56° Northeast 488 562 37,000 -242 Level Houston Center
Mon 07:36:36 PM 28.8547 -97.3989 56° Northeast 487 560 36,500 -919 Descending Houston Center
Mon 07:37:38 PM 28.9289 -97.2711 56° Northeast 485 558 35,100 -1,887 Descending Houston Center
Mon 07:38:40 PM 29.0047 -97.1419 56° Northeast 488 562 32,600 -2,081 Descending Houston Center
Mon 07:39:42 PM 29.0783 -97.0144 57° Northeast 488 562 30,800 -2,226 Descending Houston Center
Mon 07:40:44 PM 29.1658 -96.8614 57° Northeast 485 558 28,000 -2,129 Descending Houston Center
Mon 07:41:46 PM 29.2383 -96.7339 57° Northeast 486 559 26,400 -2,516 Descending Houston Center
Mon 07:42:48 PM 29.3139 -96.6056 56° Northeast 492 566 22,800 -3,000 Descending Houston Center
Mon 07:43:50 PM 29.3869 -96.4803 56° Northeast 483 556 20,200 -2,411 Descending Houston Center
Mon 07:44:40 PM 29.4531 -96.3617 57° Northeast 451 519 18,300 -1,935 Descending Houston Center
Mon 07:44:52 PM 29.4542 -96.3608 33° Northeast 452 520 18,200 -1,742 Descending Houston Center
Mon 07:45:11 PM 29.4842 -96.3078 57° Northeast 419 482 17,400 -2,516 Descending Houston Center
Mon 07:45:54 PM 29.5294 -96.2303 56° Northeast 416 479 15,600 -2,951 Descending Houston Center
Mon 07:46:12 PM 29.5500 -96.1950 56° Northeast 402 463 14,400 -3,194 Descending Houston Center
Mon 07:46:56 PM 29.6061 -96.1358 43° Northeast 409 471 12,300 -3,148 Descending Houston Center
Mon 07:47:13 PM 29.6289 -96.1117 43° Northeast 397 457 11,200 -2,129 Descending Houston Center
Mon 07:47:58 PM 29.6806 -96.0561 43° Northeast 372 428 10,100 -1,821 Descending Houston Center
Mon 07:48:09 PM 29.6919 -96.0397 51° Northeast 320 368 9,500 -1,645 Descending Houston Center
Mon 07:49:00 PM 29.7514 -95.9844 39° Northeast 309 356 8,400 -1,273 Descending Houston Center
Mon 07:49:15 PM 29.7700 -95.9706 33° Northeast 300 345 8,100 -774 Descending Houston Center
Mon 07:50:02 PM 29.8233 -95.9319 32° Northeast 304 350 7,600 -581 Descending Houston Center
Mon 07:50:17 PM 29.8408 -95.9169 37° Northeast 301 346 7,500 -484 Descending Houston Center
Mon 07:51:04 PM 29.8894 -95.8794 34° Northeast 293 337 7,100 -492 Descending Houston Center
Mon 07:51:18 PM 29.9036 -95.8661 39° Northeast 264 304 7,000 -581 Descending Houston Center
Mon 07:52:06 PM 29.9475 -95.8339 32° Northeast 260 299 6,500 -491 Descending Houston Center
Mon 07:53:08 PM 29.9853 -95.7728 54° Northeast 239 275 6,100 -339 Descending Houston Center
Mon 07:54:10 PM 29.9928 -95.6994 83° East 234 269 5,800 -609 Descending Houston Center
Mon 07:55:16 PM 29.9919 -95.6078 91° East 238 274 4,800 -1,161 Descending Houston Center
Mon 07:56:14 PM 29.9947 -95.5331 88° East 235 270 3,400 -1,500 Descending Houston Center
Mon 07:57:16 PM 29.9936 -95.4614 91° East 232 267 1,800 -1,161 Descending Houston Center
Mon 07:58:18 PM 29.9931 -95.4022 91° East 208 239 1,000 -677 Descending Houston Center
Mon 07:59:20 PM 29.9939 -95.3550 89° East 171 197 400 -581 Descending Houston Center

Login

Don't have an account? Register now (free) for customized features, flight alerts, and more!